Flight Track Log - Related Links

Times and Time Zones

All times are in EDT time to prevent confusion due to time zone crossing. See the ASQ3829 flight status page for this flight to view local times or setup timezone preferences in your user account.

Time Position Orientation Groundspeed Altitude Reporting Facility
EDT Latitude Longitude Course Direction KTS MPH feet Rate Location/Type
Sun 06:37:33 AM 45.4333 -73.7500 207° Southwest 160 184 1,400  Level Montreal Center
Sun 06:38:33 AM 45.3833 -73.8000 215° Southwest 190 219 3,700 1,950 Climbing Montreal Center
Sun 06:39:33 AM 45.3333 -73.8167 193° South 240 276 5,300 1,950 Climbing Montreal Center
Sun 06:40:00 AM 45.1933 -73.9334 207° Southwest  Level FlightAware Approximate
Sun 06:40:33 AM 45.2667 -73.8500 199° South 260 299 7,600  Level Montreal Center
Sun 06:41:00 AM 45.1242 -73.9827 207° Southwest  Level FlightAware Approximate
Sun 06:41:33 AM 45.2000 -73.9000 208° Southwest 260 299 9,900  Level Montreal Center
Sun 06:42:00 AM 45.0552 -74.0320 207° Southwest  Level FlightAware Approximate
Sun 06:42:33 AM 45.1167 -73.9333 196° South 300 345 11,200  Level Montreal Center
Sun 06:43:33 AM 45.0167 -73.9500 187° South 340 391 12,200 1,000 Climbing Montreal Center
Sun 06:44:33 AM 44.9333 -73.9333 172° South 360 414 13,200 1,000 Climbing Montreal Center
Sun 06:45:33 AM 44.8167 -73.9333 180° South 370 426 14,200 933 Climbing Montreal Center
Sun 06:46:03 AM 44.7933 -73.9406 192° South 374 430 14,600 923 Climbing Boston Center
Sun 06:47:04 AM 44.6892 -73.9322 177° South 379 436 15,600 1,140 Climbing Boston Center
Sun 06:48:04 AM 44.5831 -73.9264 178° South 384 442 16,900 1,300 Climbing Boston Center
Sun 06:49:04 AM 44.4686 -73.9208 178° South 384 442 18,200 1,339 Climbing Boston Center
Sun 06:50:05 AM 44.3644 -73.9122 177° South 384 442 19,600 1,377 Climbing Boston Center
Sun 06:51:06 AM 44.2644 -73.9069 178° South 384 442 21,000 1,373 Climbing Boston Center
Sun 06:52:03 AM 44.1625 -73.8986 177° South 373 429 22,300 1,373 Climbing Boston Center
Sun 06:53:04 AM 44.0606 -73.8933 178° South 373 429 23,700 1,339 Climbing Boston Center
Sun 06:54:04 AM 43.9583 -73.8850 177° South 368 423 25,000 1,100 Climbing Boston Center
Sun 06:55:04 AM 43.8544 -73.8739 176° South 368 423 25,900 496 Climbing Boston Center
Sun 06:56:05 AM 43.7461 -73.8683 178° South 373 429 26,000 50 Climbing Boston Center
Sun 06:57:04 AM 43.6317 -73.8600 177° South 393 452 26,000 -151 Level Boston Center
Sun 06:58:04 AM 43.5128 -73.8572 179° South 414 476 25,700 -639 Descending Boston Center
Sun 06:59:06 AM 43.3881 -73.8458 176° South 438 504 24,700 -850 Descending Boston Center
Sun 07:00:04 AM 43.2797 -73.8403 178° South 443 510 24,000 -923 Descending Boston Center
Sun 07:01:03 AM 43.1567 -73.8319 177° South 443 510 22,900 -1,475 Descending Boston Center
Sun 07:02:06 AM 43.0361 -73.8233 177° South 443 510 21,000 -2,049 Descending Boston Center
Sun 07:03:06 AM 42.9153 -73.8150 177° South 416 479 18,700 -2,085 Descending Boston Center
Sun 07:04:04 AM 42.8172 -73.8128 179° South 399 459 16,900 -1,373 Descending Boston Center
Sun 07:05:04 AM 42.7089 -73.8244 185° South 399 459 16,000 -454 Descending Boston Center
Sun 07:06:03 AM 42.6061 -73.8703 198° South 389 448 16,000  Level Boston Center
Sun 07:07:04 AM 42.4908 -73.9183 197° South 401 461 16,000  Level Boston Center
Sun 07:08:04 AM 42.3986 -73.9611 199° South 401 461 16,000  Level Boston Center
Sun 07:09:05 AM 42.2833 -74.0117 198° South 401 461 16,000  Level Boston Center
Sun 07:10:04 AM 42.1908 -74.0542 199° South 401 461 16,000  Level Boston Center
Sun 07:11:04 AM 42.0861 -74.0989 198° South 401 461 16,000  Level Boston Center
Sun 07:12:06 AM 41.9833 -74.1467 199° South 401 461 16,000 -151 Level Boston Center
Sun 07:13:03 AM 41.8678 -74.1936 197° South 401 461 15,700 -1,271 Descending Boston Center
Sun 07:14:04 AM 41.7756 -74.2356 199° South 395 455 13,500 -2,341 Descending Boston Center
Sun 07:15:06 AM 41.6747 -74.2800 198° South 371 427 10,900 -1,623 Descending Boston Center
Sun 07:16:06 AM 41.5992 -74.3111 197° South 332 382 10,200 -1,210 Descending Boston Center
Sun 07:17:05 AM 41.5172 -74.3475 198° South 291 335 8,500 -980 Descending Boston Center
Sun 07:19:22 AM 41.3500 -74.4167 197° South 272 313 7,000 -486 Descending New York TRACON
Sun 07:20:10 AM 41.2833 -74.4167 180° South 274 315 7,000  Level New York TRACON
Sun 07:21:10 AM 41.2167 -74.4333 191° South 275 316 7,000  Level New York TRACON
Sun 07:22:10 AM 41.1333 -74.4500 189° South 278 320 7,000 -421 Level New York TRACON
Sun 07:23:04 AM 41.0667 -74.4667 191° South 273 314 6,200 -556 Descending New York TRACON
Sun 07:23:58 AM 41.0167 -74.4667 180° South 254 292 6,000 -111 Descending New York TRACON
Sun 07:24:52 AM 40.9500 -74.4833 191° South 264 304 6,000  Level New York TRACON
Sun 07:25:52 AM 40.8667 -74.5000 189° South 264 304 6,000  Level New York TRACON
Sun 07:26:52 AM 40.8000 -74.5167 191° South 260 299 6,000 -53 Level New York TRACON
Sun 07:27:46 AM 40.7333 -74.5167 180° South 263 303 5,900 -579 Descending New York TRACON
Sun 07:28:46 AM 40.6833 -74.4500 135° Southeast 252 290 4,900 -1,000 Descending New York TRACON
Sun 07:29:46 AM 40.6333 -74.3833 135° Southeast 253 291 3,900 -950 Descending New York TRACON
Sun 07:30:46 AM 40.5667 -74.3500 159° South 255 293 3,000 -474 Descending New York TRACON
Sun 07:31:40 AM 40.5167 -74.3167 153° Southeast 249 287 3,000 -53 Level New York TRACON
Sun 07:32:40 AM 40.5500 -74.2500 57° Northeast 240 276 2,900 -600 Descending New York TRACON
Sun 07:33:40 AM 40.6000 -74.2167 27° Northeast 206 237 1,800 -1,000 Descending New York TRACON
Sun 07:34:40 AM 40.6500 -74.2000 14° North 141 162 900 -900 Descending New York TRACON
Sun 07:36:00 AM 40.6833 -74.1667 24° Northeast  Level FlightAware Approximate
Sun 07:43:00 AM 40.6925 -74.1687 24° Northeast  Level Estimated
Sun 07:44:00 AM 40.6925 -74.1687 24° Northeast  Level Estimated

Login

Don't have an account? Register now (free) for customized features, flight alerts, and more!